Rhosneigr, United Kingdom
Current Conditions -  °F | °C
As of 9:50 AM on Friday 19 Dec 2014 (Local Time) from EGOV Reporting Station
Few Clouds Few Clouds  
Wind Chill: 38°   Ceiling: Unl
Heat Index: 46°   Visibility: 6mi
Dew Point: 36°   Wind: 23mph
Humidity: 66%   Direction: 270°W
Pressure: 29.94"   Gusts: NA
Location:  53.23°N, 4.52°W
Report Text: EGOV 190950Z 27020KT 9999 FEW028 08/02 Q1014 BLU NOSIG
Loading
Personal Weather Stations






























Interactive Weather Map New forecast layout! Learn more

10-Day Weather Forecast

Advertisements
Track Severe Weather on mobile